• Join FlightAware (Why Join?)
  • Login
  • US Flag GB Flag 
01:28 EDT


 

Airport Tracker/Info


-or-


 

Live Flight TrackerFlight Track Log ✈ EVA18 ✈ 30-Jan-2014 ✈ RCTP / TPE - KSFO

Flight Track Log - Related Links

Times and Time Zones

All times are in EST time to prevent confusion due to time zone crossing. See the EVA18 flight status page for this flight to view local times or setup timezone preferences in your user account.

Time Position Orientation Groundspeed Altitude Reporting Facility
EST Latitude Longitude Course Direction KTS MPH feet Rate Location/Type
07:48 25.2395 121.6960 68° East  Level FlightAware Approximate
07:49 25.2966 121.8564 70° East  Level FlightAware Approximate
07:50 25.3506 122.0182 70° East  Level FlightAware Approximate
07:51 25.4048 122.1800 68° East  Level FlightAware Approximate
07:52 25.4621 122.3405 68° East  Level FlightAware Approximate
07:53 25.5174 122.5020 70° East  Level FlightAware Approximate
07:54 25.5722 122.6637 66° East  Level FlightAware Approximate
07:55 25.6347 122.8220 74° East  Level FlightAware Approximate
07:56 25.6879 122.9842 67° East  Level FlightAware Approximate
07:57 25.7393 123.1475 72° East  Level FlightAware Approximate
07:58 25.7923 123.3103 70° East  Level FlightAware Approximate
07:59 25.8434 123.4739 71° East  Level FlightAware Approximate
08:00 25.8938 123.6378 71° East  Level FlightAware Approximate
08:01 25.9465 123.8008 67° East  Level FlightAware Approximate
08:02 26.0078 123.9603 67° East  Level FlightAware Approximate
08:03 26.0594 124.1239 71° East  Level FlightAware Approximate
08:04 26.1091 124.2884 71° East  Level FlightAware Approximate
08:05 26.1586 124.4531 71° East  Level FlightAware Approximate
08:06 26.2080 124.6179 72° East  Level FlightAware Approximate
08:07 26.2572 124.7828 72° East  Level FlightAware Approximate
08:08 26.3062 124.9478 72° East  Level FlightAware Approximate
08:09 26.3563 125.1125 71° East  Level FlightAware Approximate
08:10 26.4067 125.2772 71° East  Level FlightAware Approximate
08:11 26.4569 125.4420 71° East  Level FlightAware Approximate
08:12 26.5069 125.6070 71° East  Level FlightAware Approximate
08:13 26.5567 125.7721 71° East  Level FlightAware Approximate
08:14 26.6063 125.9373 71° East  Level FlightAware Approximate
08:15 26.6558 126.1027 71° East  Level FlightAware Approximate
08:16 26.7050 126.2682 72° East  Level FlightAware Approximate
08:17 26.7540 126.4339 72° East  Level FlightAware Approximate
08:18 26.8027 126.5998 72° East  Level FlightAware Approximate
08:19 26.8511 126.7659 72° East  Level FlightAware Approximate
08:20 26.8993 126.9321 72° East  Level FlightAware Approximate
08:21 26.9479 127.0982 71° East  Level FlightAware Approximate
08:22 26.9979 127.2638 71° East  Level FlightAware Approximate
08:23 27.0478 127.4297 71° East  Level FlightAware Approximate
08:24 27.0974 127.5956 71° East  Level FlightAware Approximate
08:25 27.1468 127.7617 71° East  Level FlightAware Approximate
08:26 27.1960 127.9280 72° East  Level FlightAware Approximate
08:27 27.2451 128.0944 72° East  Level FlightAware Approximate
08:28 27.2939 128.2610 72° East  Level FlightAware Approximate
08:29 27.3425 128.4277 72° East  Level FlightAware Approximate
08:30 27.3910 128.5945 72° East  Level FlightAware Approximate
08:31 27.4365 128.7624 74° East  Level FlightAware Approximate
08:32 27.4787 128.9315 74° East  Level FlightAware Approximate
08:33 27.5211 129.1007 74° East  Level FlightAware Approximate
08:34 27.5637 129.2698 74° East  Level FlightAware Approximate
08:35 27.6061 129.4390 74° East  Level FlightAware Approximate
08:36 27.6483 129.6084 74° East  Level FlightAware Approximate
08:37 27.6904 129.7779 74° East  Level FlightAware Approximate
08:38 27.7322 129.9476 74° East  Level FlightAware Approximate
08:39 27.7738 130.1173 74° East  Level FlightAware Approximate
08:40 27.8152 130.2872 75° East  Level FlightAware Approximate
08:41 27.8563 130.4572 75° East  Level FlightAware Approximate
08:42 27.8953 130.6280 76° East  Level FlightAware Approximate
08:43 27.9333 130.7991 76° East  Level FlightAware Approximate
08:44 27.9711 130.9703 76° East  Level FlightAware Approximate
08:45 28.0087 131.1416 76° East  Level FlightAware Approximate
08:46 28.0461 131.3131 76° East  Level FlightAware Approximate
08:47 28.0832 131.4847 76° East  Level FlightAware Approximate
08:48 28.1202 131.6564 76° East  Level FlightAware Approximate
08:49 28.1569 131.8282 76° East  Level FlightAware Approximate
08:50 28.1935 132.0001 76° East  Level FlightAware Approximate
08:51 28.2298 132.1721 76° East  Level FlightAware Approximate
08:52 28.2659 132.3443 77° East  Level FlightAware Approximate
08:53 28.3018 132.5165 77° East  Level FlightAware Approximate
08:54 28.3374 132.6889 77° East  Level FlightAware Approximate
08:55 28.3761 132.8605 75° East  Level FlightAware Approximate
08:56 28.4163 133.0317 75° East  Level FlightAware Approximate
08:57 28.4541 133.2037 76° East  Level FlightAware Approximate
08:58 28.4917 133.3758 76° East  Level FlightAware Approximate
08:59 28.5291 133.5480 76° East  Level FlightAware Approximate
09:00 28.5662 133.7204 76° East  Level FlightAware Approximate
09:01 28.6134 133.8878 64° Northeast  Level FlightAware Approximate
09:02 28.6809 134.0479 64° Northeast  Level FlightAware Approximate
09:03 28.7482 134.2082 64° Northeast  Level FlightAware Approximate
09:04 28.8153 134.3687 64° Northeast  Level FlightAware Approximate
09:05 28.8822 134.5295 65° Northeast  Level FlightAware Approximate
09:06 28.9490 134.6904 65° Northeast  Level FlightAware Approximate
09:07 29.0155 134.8515 65° Northeast  Level FlightAware Approximate
09:08 29.0819 135.0129 65° Northeast  Level FlightAware Approximate
09:09 29.1481 135.1745 65° Northeast  Level FlightAware Approximate
09:10 29.2140 135.3362 65° Northeast  Level FlightAware Approximate
09:11 29.2798 135.4982 65° Northeast  Level FlightAware Approximate
09:12 29.3454 135.6604 65° Northeast  Level FlightAware Approximate
09:13 29.4108 135.8228 65° Northeast  Level FlightAware Approximate
09:14 29.4760 135.9854 65° Northeast  Level FlightAware Approximate
09:15 29.5410 136.1483 65° Northeast  Level FlightAware Approximate
09:16 29.6057 136.3113 65° Northeast  Level FlightAware Approximate
09:17 29.6703 136.4745 65° Northeast  Level FlightAware Approximate
09:18 29.7347 136.6380 66° East  Level FlightAware Approximate
09:19 29.7989 136.8016 66° East  Level FlightAware Approximate
09:20 29.8629 136.9655 66° East  Level FlightAware Approximate
09:21 29.9267 137.1295 66° East  Level FlightAware Approximate
09:22 29.9903 137.2938 66° East  Level FlightAware Approximate
09:23 30.0536 137.4583 66° East  Level FlightAware Approximate
09:24 30.1168 137.6230 66° East  Level FlightAware Approximate
09:25 30.1798 137.7879 66° East  Level FlightAware Approximate
09:26 30.2425 137.9531 66° East  Level FlightAware Approximate
09:27 30.3051 138.1184 66° East  Level FlightAware Approximate
09:28 30.3675 138.2840 66° East  Level FlightAware Approximate
09:29 30.4296 138.4497 66° East  Level FlightAware Approximate
09:30 30.4915 138.6157 67° East  Level FlightAware Approximate
09:31 30.5534 138.7818 67° East  Level FlightAware Approximate
09:32 30.6153 138.9480 67° East  Level FlightAware Approximate
09:33 30.6769 139.1144 67° East  Level FlightAware Approximate
09:34 30.7383 139.2811 67° East  Level FlightAware Approximate
09:35 30.7995 139.4479 67° East  Level FlightAware Approximate
09:36 30.8605 139.6150 67° East  Level FlightAware Approximate
09:37 30.9213 139.7823 67° East  Level FlightAware Approximate
09:38 30.9819 139.9498 67° East  Level FlightAware Approximate
09:39 31.0400 140.1185 68° East  Level FlightAware Approximate
09:40 31.0969 140.2879 69° East  Level FlightAware Approximate
09:41 31.1537 140.4576 69° East  Level FlightAware Approximate
09:42 31.2101 140.6274 69° East  Level FlightAware Approximate
09:43 31.2664 140.7974 69° East  Level FlightAware Approximate
09:44 31.3227 140.9676 68° East  Level FlightAware Approximate
09:45 31.3803 141.1372 68° East  Level FlightAware Approximate
09:46 31.4376 141.3070 68° East  Level FlightAware Approximate
09:47 31.4948 141.4771 68° East  Level FlightAware Approximate
09:48 31.5517 141.6473 69° East  Level FlightAware Approximate
09:49 31.6084 141.8178 69° East  Level FlightAware Approximate
09:50 31.6649 141.9884 69° East  Level FlightAware Approximate
09:51 31.7211 142.1593 69° East  Level FlightAware Approximate
09:52 31.7771 142.3304 69° East  Level FlightAware Approximate
09:53 31.8329 142.5017 69° East  Level FlightAware Approximate
09:54 31.8885 142.6732 69° East  Level FlightAware Approximate
09:55 31.9438 142.8449 69° East  Level FlightAware Approximate
09:56 31.9989 143.0168 69° East  Level FlightAware Approximate
09:57 32.0538 143.1889 69° East  Level FlightAware Approximate
09:58 32.1084 143.3612 69° East  Level FlightAware Approximate
09:59 32.1628 143.5337 70° East  Level FlightAware Approximate
10:00 32.2169 143.7065 70° East  Level FlightAware Approximate
10:01 32.2709 143.8794 70° East  Level FlightAware Approximate
10:02 32.3246 144.0525 70° East  Level FlightAware Approximate
10:03 32.3780 144.2259 70° East  Level FlightAware Approximate
10:04 32.4313 144.3994 70° East  Level FlightAware Approximate
10:05 32.4842 144.5732 70° East  Level FlightAware Approximate
10:06 32.5370 144.7471 70° East  Level FlightAware Approximate
10:07 32.5895 144.9213 70° East  Level FlightAware Approximate
10:08 32.6417 145.0957 70° East  Level FlightAware Approximate
10:09 32.6937 145.2702 70° East  Level FlightAware Approximate
10:10 32.7455 145.4450 71° East  Level FlightAware Approximate
10:11 32.7973 145.6199 71° East  Level FlightAware Approximate
10:12 32.8489 145.7949 71° East  Level FlightAware Approximate
10:13 32.9004 145.9701 71° East  Level FlightAware Approximate
10:14 32.9515 146.1455 71° East  Level FlightAware Approximate
10:15 33.0025 146.3212 71° East  Level FlightAware Approximate
10:16 33.0532 146.4970 71° East  Level FlightAware Approximate
10:17 33.1036 146.6730 71° East  Level FlightAware Approximate
10:18 33.1538 146.8493 71° East  Level FlightAware Approximate
10:19 33.2037 147.0257 71° East  Level FlightAware Approximate
10:20 33.2534 147.2023 71° East  Level FlightAware Approximate
10:21 33.3029 147.3792 71° East  Level FlightAware Approximate
10:22 33.3521 147.5562 72° East  Level FlightAware Approximate
10:23 33.4010 147.7335 72° East  Level FlightAware Approximate
10:24 33.4497 147.9109 72° East  Level FlightAware Approximate
10:25 33.4981 148.0885 72° East  Level FlightAware Approximate
10:26 33.5463 148.2664 72° East  Level FlightAware Approximate
10:27 33.5943 148.4444 72° East  Level FlightAware Approximate
10:28 33.6419 148.6226 72° East  Level FlightAware Approximate
10:29 33.6894 148.8011 72° East  Level FlightAware Approximate
10:30 33.7365 148.9797 72° East  Level FlightAware Approximate
10:31 33.7834 149.1585 72° East  Level FlightAware Approximate
10:32 33.8301 149.3375 73° East  Level FlightAware Approximate
10:33 33.8764 149.5167 73° East  Level FlightAware Approximate
10:34 33.9226 149.6961 73° East  Level FlightAware Approximate
10:35 33.9684 149.8757 73° East  Level FlightAware Approximate
10:36 34.0137 150.0557 73° East  Level FlightAware Approximate
10:37 34.0579 150.2361 73° East  Level FlightAware Approximate
10:38 34.1019 150.4166 74° East  Level FlightAware Approximate
10:39 34.1456 150.5974 74° East  Level FlightAware Approximate
10:40 34.1890 150.7783 74° East  Level FlightAware Approximate
10:41 34.2322 150.9595 74° East  Level FlightAware Approximate
10:42 34.2750 151.1408 74° East  Level FlightAware Approximate
10:43 34.3177 151.3223 74° East  Level FlightAware Approximate
10:44 34.3600 151.5040 74° East  Level FlightAware Approximate
10:45 34.4021 151.6859 74° East  Level FlightAware Approximate
10:46 34.4439 151.8679 74° East  Level FlightAware Approximate
10:47 34.4855 152.0502 74° East  Level FlightAware Approximate
10:48 34.5268 152.2326 75° East  Level FlightAware Approximate
10:49 34.5678 152.4152 75° East  Level FlightAware Approximate
10:50 34.6085 152.5980 75° East  Level FlightAware Approximate
10:51 34.6490 152.7809 75° East  Level FlightAware Approximate
10:52 34.6892 152.9641 75° East  Level FlightAware Approximate
10:53 34.7291 153.1474 75° East  Level FlightAware Approximate
10:54 34.7687 153.3309 75° East  Level FlightAware Approximate
10:55 34.8081 153.5145 75° East  Level FlightAware Approximate
10:56 34.8471 153.6984 75° East  Level FlightAware Approximate
10:57 34.8860 153.8824 76° East  Level FlightAware Approximate
10:58 34.9245 154.0666 76° East  Level FlightAware Approximate
10:59 34.9627 154.2509 76° East  Level FlightAware Approximate
11:00 35.0007 154.4355 76° East  Level FlightAware Approximate
11:01 35.0384 154.6202 76° East  Level FlightAware Approximate
11:02 35.0758 154.8050 76° East  Level FlightAware Approximate
11:03 35.1130 154.9901 76° East  Level FlightAware Approximate
11:04 35.1498 155.1753 76° East  Level FlightAware Approximate
11:05 35.1864 155.3607 76° East  Level FlightAware Approximate
11:06 35.2227 155.5462 76° East  Level FlightAware Approximate
11:07 35.2587 155.7319 77° East  Level FlightAware Approximate
11:08 35.2944 155.9178 77° East  Level FlightAware Approximate
11:09 35.3298 156.1038 77° East  Level FlightAware Approximate
11:10 35.3650 156.2900 77° East  Level FlightAware Approximate
11:11 35.3999 156.4764 77° East  Level FlightAware Approximate
11:12 35.4344 156.6629 77° East  Level FlightAware Approximate
11:13 35.4687 156.8496 77° East  Level FlightAware Approximate
11:14 35.5027 157.0364 77° East  Level FlightAware Approximate
11:15 35.5364 157.2234 77° East  Level FlightAware Approximate
11:16 35.5699 157.4106 78° East  Level FlightAware Approximate
11:17 35.6030 157.5979 78° East  Level FlightAware Approximate
11:18 35.6359 157.7854 78° East  Level FlightAware Approximate
11:19 35.6684 157.9730 78° East  Level FlightAware Approximate
11:20 35.7007 158.1607 78° East  Level FlightAware Approximate
11:21 35.7327 158.3487 78° East  Level FlightAware Approximate
11:22 35.7643 158.5367 78° East  Level FlightAware Approximate
11:23 35.7957 158.7249 78° East  Level FlightAware Approximate
11:24 35.8268 158.9133 78° East  Level FlightAware Approximate
11:25 35.8576 159.1018 79° East  Level FlightAware Approximate
11:26 35.8881 159.2905 79° East  Level FlightAware Approximate
11:27 35.9183 159.4793 79° East  Level FlightAware Approximate
11:28 35.9482 159.6683 79° East  Level FlightAware Approximate
11:29 35.9779 159.8573 79° East  Level FlightAware Approximate
11:30 36.0112 160.0453 73° East  Level FlightAware Approximate
11:31 36.0568 160.2297 73° East  Level FlightAware Approximate
11:32 36.1020 160.4143 73° East  Level FlightAware Approximate
11:33 36.1470 160.5991 73° East  Level FlightAware Approximate
11:34 36.1917 160.7841 73° East  Level FlightAware Approximate
11:35 36.2360 160.9693 73° East  Level FlightAware Approximate
11:36 36.2802 161.1547 74° East  Level FlightAware Approximate
11:37 36.3240 161.3403 74° East  Level FlightAware Approximate
11:38 36.3675 161.5262 74° East  Level FlightAware Approximate
11:39 36.4108 161.7122 74° East  Level FlightAware Approximate
11:40 36.4537 161.8985 74° East  Level FlightAware Approximate
11:41 36.4964 162.0849 74° East  Level FlightAware Approximate
11:42 36.5388 162.2716 74° East  Level FlightAware Approximate
11:43 36.5809 162.4585 74° East  Level FlightAware Approximate
11:44 36.6227 162.6455 74° East  Level FlightAware Approximate
11:45 36.6642 162.8328 75° East  Level FlightAware Approximate
11:46 36.7054 163.0203 75° East  Level FlightAware Approximate
11:47 36.7463 163.2080 75° East  Level FlightAware Approximate
11:48 36.7869 163.3959 75° East  Level FlightAware Approximate
11:48 37.4500 166.7833 77° East 551 634 34,000  Level Oakland Oceanic (ODAPS)
12:02 37.9167 169.4333 79° East 555 639 34,000  Level Oakland Oceanic (ODAPS)
12:05 38.0000 170.0000 72° East 546 628 34,000  Level Oakland Oceanic (ODAPS)
12:16 38.4833 172.0167 74° East 544 626 34,000  Level Oakland Oceanic (ODAPS)
12:30 39.0333 174.5667 75° East 535 616 34,000  Level Oakland Oceanic (ODAPS)
12:43 39.5333 177.1667 77° East 542 624 34,000  Level Oakland Oceanic (ODAPS)
12:47 39.6333 177.7833 77° East 541 623 34,000  Level Oakland Oceanic (ODAPS)
12:59 40.0000 180.0000 79° East 533 613 34,000  Level Oakland Oceanic (ODAPS)
13:01 40.0667 -179.5500 80° East 533 613 34,000 60 Level Oakland Oceanic (ODAPS)
13:14 40.4000 -176.9000 81° East 527 606 35,000  Climbing Oakland Oceanic (ODAPS)
13:28 40.6833 -174.2667 83° East 523 602 35,000  Level Oakland Oceanic (ODAPS)
13:42 40.9000 -171.6500 85° East 522 601 35,000  Level Oakland Oceanic (ODAPS)
13:51 41.0000 -170.0000 79° East 534 615 35,000  Level Oakland Oceanic (ODAPS)
13:56 41.1333 -169.0000 80° East 535 616 35,000  Level Oakland Oceanic (ODAPS)
14:10 41.4667 -166.3167 81° East 541 623 35,000  Level Oakland Oceanic (ODAPS)
14:24 41.7500 -163.5667 83° East 540 621 35,000  Level Oakland Oceanic (ODAPS)
14:38 41.9500 -160.7833 85° East 540 621 35,000  Level Oakland Oceanic (ODAPS)
14:42 42.0000 -160.0000 87° East 542 624 35,000  Level Oakland Oceanic (ODAPS)
14:52 42.0667 -158.0000 88° East 540 621 35,000  Level Oakland Oceanic (ODAPS)
15:05 42.1167 -155.2000 90° East 544 626 35,000  Level Oakland Oceanic (ODAPS)
15:19 42.0833 -152.3833 92° East 542 624 36,000  Climbing Oakland Oceanic (ODAPS)
15:31 42.0000 -150.0000 94° East 542 624 36,000  Level Oakland Oceanic (ODAPS)
15:33 41.9833 -149.5833 95° East 543 625 36,000  Level Oakland Oceanic (ODAPS)
15:47 41.7667 -146.7333 96° East 550 633 36,000  Level Oakland Oceanic (ODAPS)
16:01 41.5000 -143.9333 98° East 546 628 36,000  Level Oakland Oceanic (ODAPS)
16:15 41.1667 -141.2000 100° East 532 612 36,000  Level Oakland Oceanic (ODAPS)
16:21 41.0000 -140.0000 101° East 548 631 36,000  Level Oakland Oceanic (ODAPS)
16:29 40.7500 -138.4667 102° East 558 642 36,000  Level Oakland Oceanic (ODAPS)
16:43 40.2667 -135.7000 104° East 563 648 36,000  Level Oakland Oceanic (ODAPS)
16:56 39.7000 -132.9667 106° East 565 650 37,000  Climbing Oakland Oceanic (ODAPS)
17:10 39.0667 -130.2833 107° East 574 661 37,000  Level Oakland Oceanic (ODAPS)
17:12 39.0000 -130.0000 102° East 571 657 37,000  Level Oakland Oceanic (ODAPS)
17:24 38.5667 -127.5500 103° East 565 650 37,000  Level Oakland Oceanic (ODAPS)
17:24 38.5589 -127.4825 111° Southeast 570 656 37,000  Level Oakland Center
17:25 38.5422 -127.3974 104° East 571 657 37,000  Level FlightAware Transoceanic
17:25 38.5219 -127.2878 104° East 569 655 37,000  Level Oakland Center
17:26 38.5046 -127.1986 104° East 571 657 37,000  Level FlightAware Transoceanic
17:26 38.4850 -127.0939 104° East 566 651 37,000  Level Oakland Center
17:27 38.4667 -127.0000 111° Southeast 571 657 37,000 -120 Level FlightAware Transoceanic
17:27 38.4383 -126.9025 107° East 567 652 36,900  Descending Oakland Center
17:28 38.4094 -126.8114 111° Southeast 571 657 37,000 60 Climbing FlightAware Transoceanic
17:28 38.3844 -126.7128 110° East 569 655 37,000  Level Oakland Center
17:29 38.3518 -126.6232 111° Southeast 571 657 37,000 -120 Level FlightAware Transoceanic
17:29 38.3336 -126.5231 109° East 569 655 36,900  Descending Oakland Center
17:30 38.2939 -126.4352 111° Southeast 565 650 37,000 60 Climbing FlightAware Transoceanic
17:30 38.2831 -126.3358 109° East 565 650 37,000  Level Oakland Center
17:31 38.2289 -126.1400 109° East 563 648 37,000  Level Oakland Center
17:32 38.1767 -125.9519 109° East 564 649 37,000  Level Oakland Center
17:33 38.1233 -125.7658 110° East 562 647 37,000  Level Oakland Center
17:34 38.0703 -125.5794 110° East 563 648 37,000  Level Oakland Center
17:36 38.0178 -125.3936 110° East 562 647 37,000 -960 Level Oakland Center
17:37 37.9533 -125.1678 110° East 568 654 35,100 -2,100 Descending Oakland Center
17:38 37.8989 -124.9811 110° East 568 654 32,800 -2,160 Descending Oakland Center
17:39 37.8464 -124.8000 110° East 554 638 30,700 -1,980 Descending Oakland Center
17:40 37.7939 -124.6239 111° Southeast 539 620 28,800 -1,860 Descending Oakland Center
17:41 37.7433 -124.4531 110° East 524 603 27,000 -1,740 Descending Oakland Center
17:42 37.6947 -124.2883 110° East 507 583 25,300 -1,620 Descending Oakland Center
17:43 37.6464 -124.1278 111° Southeast 494 568 23,700 -1,680 Descending Oakland Center
17:44 37.5972 -123.9650 111° Southeast 496 571 21,900 -1,920 Descending Oakland Center
17:45 37.5389 -123.7769 111° Southeast 484 557 19,900 -1,860 Descending Oakland Center
17:46 37.4953 -123.6311 111° Southeast 459 528 18,200 -1,380 Descending Oakland Center
17:52 37.2646 -122.8350 111° Southeast 312 359 10,000 -1,320 Descending FlightAware ADS-B
17:52 37.2657 -122.8300 75° East 310 357 10,000  Level FlightAware ADS-B
17:53 37.2779 -122.7760 74° East 309 356 10,000  Level FlightAware ADS-B
17:53 37.2951 -122.7030 73° East 309 356 10,000  Level FlightAware ADS-B
17:54 37.3077 -122.6490 74° East 309 356 10,000 -240 Level FlightAware ADS-B
17:55 37.3254 -122.5740 73° East 309 356 9,700 -540 Descending FlightAware ADS-B
17:55 37.3313 -122.5480 74° East 305 351 9,500 -600 Descending FlightAware ADS-B
17:55 37.3373 -122.5220 74° East 304 350 9,400 -600 Descending FlightAware ADS-B
17:55 37.3432 -122.4960 74° East 303 349 9,200 -840 Descending FlightAware ADS-B
17:56 37.3493 -122.4700 74° East 302 348 9,000 -780 Descending FlightAware ADS-B
17:56 37.3583 -122.4300 74° East 302 348 8,700 -780 Descending FlightAware ADS-B
17:56 37.3644 -122.4040 74° East 294 338 8,500 -600 Descending FlightAware ADS-B
17:57 37.3700 -122.3790 74° East 289 333 8,400 -600 Descending FlightAware ADS-B
17:57 37.3755 -122.3550 74° East 284 327 8,200 -600 Descending FlightAware ADS-B
17:57 37.3814 -122.3290 74° East 278 320 8,100 -420 Descending FlightAware ADS-B
17:57 37.3871 -122.3050 73° East 271 312 8,000  Descending FlightAware ADS-B
17:58 37.3909 -122.2870 75° East 258 297 8,100  Climbing FlightAware ADS-B
17:58 37.3924 -122.2800 75° East 256 295 8,000 -600 Descending FlightAware ADS-B
17:58 37.3943 -122.2730 71° East 255 293 8,000  Level FlightAware ADS-B
17:58 37.3962 -122.2680 64° Northeast 253 291 8,000 -600 Level FlightAware ADS-B
17:58 37.3997 -122.2590 64° Northeast 251 289 7,900 -1,440 Descending FlightAware ADS-B
17:58 37.4089 -122.2410 57° Northeast 243 280 7,500 -1,560 Descending FlightAware ADS-B
17:58 37.4185 -122.2230 56° Northeast 234 269 7,100 -1,500 Descending FlightAware ADS-B
17:59 37.4273 -122.2060 57° Northeast 222 255 6,700 -1,920 Descending FlightAware ADS-B
17:59 37.2660 -122.8890 254° West 319 367 6,300 -2,400 Descending FlightAware ADS-B
17:59 37.4358 -122.1890 73° East 218 251 6,100 -2,040 Descending FlightAware ADS-B
17:59 37.4439 -122.1730 57° Northeast 219 252 5,600 -2,160 Descending FlightAware ADS-B
17:59 37.4524 -122.1550 59° Northeast 221 254 5,000 -2,340 Descending FlightAware ADS-B
17:59 37.4551 -122.1500 56° Northeast 221 254 4,800 -2,700 Descending FlightAware ADS-B
18:00 37.4578 -122.1460 50° Northeast 218 251 4,600 -2,580 Descending FlightAware ADS-B
18:00 37.4601 -122.1430 46° Northeast 217 250 4,500 -1,740 Descending FlightAware ADS-B
18:00 37.4631 -122.1400 38° Northeast 213 245 4,400 -1,380 Descending FlightAware ADS-B
18:00 37.4671 -122.1370 31° Northeast 208 239 4,300 -840 Descending FlightAware ADS-B
18:00 37.4751 -122.1310 31° Northeast 204 235 4,200 -900 Descending FlightAware ADS-B
18:01 37.5059 -122.1370 351° North 179 206 3,600 -780 Descending FlightAware ADS-B
18:01 37.5167 -122.1470 324° Northwest 180 207 3,500 -540 Descending FlightAware ADS-B
18:01 37.5217 -122.1510 328° Northwest 182 209 3,400 -600 Descending FlightAware ADS-B
18:01 37.5236 -122.1530 320° Northwest 182 209 3,400 -900 Level FlightAware ADS-B
18:01 37.5259 -122.1570 306° West 181 208 3,300 -900 Descending FlightAware ADS-B
18:01 37.5275 -122.1600 304° West 181 208 3,300  Level FlightAware ADS-B
18:01 37.5296 -122.1640 304° West 182 209 3,300 -720 Level FlightAware ADS-B
18:01 37.5314 -122.1680 300° West 182 209 3,200 -600 Descending FlightAware ADS-B
18:01 37.5340 -122.1740 299° West 179 206 3,200 -840 Level FlightAware ADS-B
18:02 37.5403 -122.1890 298° West 179 206 2,900 -960 Descending FlightAware ADS-B
18:02 37.5439 -122.1970 300° West 179 206 2,800 -900 Descending FlightAware ADS-B
18:02 37.5484 -122.2080 297° West 179 206 2,600 -1,140 Descending FlightAware ADS-B
18:02 37.5524 -122.2170 299° West 178 205 2,400 -900 Descending FlightAware ADS-B
18:02 37.5590 -122.2330 297° West 178 205 2,200 -840 Descending FlightAware ADS-B
18:03 37.5633 -122.2430 298° West 174 200 2,000 -1,020 Descending FlightAware ADS-B
18:03 37.5703 -122.2600 297° West 161 185 1,700 -780 Descending FlightAware ADS-B
18:03 37.5743 -122.2690 299° West 150 173 1,600 -720 Descending FlightAware ADS-B
18:03 37.5791 -122.2810 297° West 139 160 1,400 -900 Descending FlightAware ADS-B
18:04 37.5829 -122.2900 298° West 136 157 1,200 -720 Descending FlightAware ADS-B
18:04 37.5915 -122.3100 298° West 134 154 900 -720 Descending FlightAware ADS-B
18:04 37.5959 -122.3210 297° West 132 152 700 -600 Descending FlightAware ADS-B
18:05 37.6000 -122.3310 297° West 137 158 600 -660 Descending FlightAware ADS-B
18:05 37.6046 -122.3410 300° West 137 158 400 -900 Descending FlightAware ADS-B
18:05 37.6064 -122.3460 294° West 138 159 300 -720 Descending FlightAware ADS-B
18:05 37.6100 -122.3540 300° West 139 160 200 -540 Descending FlightAware ADS-B